sensor_id;sensor_type;location;lat;lon;timestamp;temperature;humidity
13892;DHT22;7016;48.172;8.058;2023-06-10T00:01:17;19.60;92.50
13892;DHT22;7016;48.172;8.058;2023-06-10T00:04:04;19.60;92.90
13892;DHT22;7016;48.172;8.058;2023-06-10T00:06:50;19.50;92.80
13892;DHT22;7016;48.172;8.058;2023-06-10T00:09:37;19.40;92.90
13892;DHT22;7016;48.172;8.058;2023-06-10T00:12:23;19.30;93.00
13892;DHT22;7016;48.172;8.058;2023-06-10T00:15:09;19.30;93.30
13892;DHT22;7016;48.172;8.058;2023-06-10T00:17:56;19.20;93.00
13892;DHT22;7016;48.172;8.058;2023-06-10T00:20:42;19.20;93.20
13892;DHT22;7016;48.172;8.058;2023-06-10T00:23:28;19.20;93.20
13892;DHT22;7016;48.172;8.058;2023-06-10T00:26:16;19.10;92.90
13892;DHT22;7016;48.172;8.058;2023-06-10T00:29:03;19.00;93.50
13892;DHT22;7016;48.172;8.058;2023-06-10T00:31:49;19.00;93.60
13892;DHT22;7016;48.172;8.058;2023-06-10T00:34:35;19.00;93.30
13892;DHT22;7016;48.172;8.058;2023-06-10T00:37:22;19.10;93.00
13892;DHT22;7016;48.172;8.058;2023-06-10T00:40:08;19.00;93.30
13892;DHT22;7016;48.172;8.058;2023-06-10T00:42:55;19.00;93.40
13892;DHT22;7016;48.172;8.058;2023-06-10T00:45:41;19.00;93.20
13892;DHT22;7016;48.172;8.058;2023-06-10T00:48:27;18.70;93.80
13892;DHT22;7016;48.172;8.058;2023-06-10T00:51:16;18.70;94.10
13892;DHT22;7016;48.172;8.058;2023-06-10T00:54:02;18.60;94.20
13892;DHT22;7016;48.172;8.058;2023-06-10T00:56:49;18.70;94.00
13892;DHT22;7016;48.172;8.058;2023-06-10T00:59:35;18.50;94.10
13892;DHT22;7016;48.172;8.058;2023-06-10T01:02:22;18.40;94.10
13892;DHT22;7016;48.172;8.058;2023-06-10T01:05:09;18.50;94.10
13892;DHT22;7016;48.172;8.058;2023-06-10T01:08:03;18.60;94.40
13892;DHT22;7016;48.172;8.058;2023-06-10T01:10:57;18.60;94.30
13892;DHT22;7016;48.172;8.058;2023-06-10T01:13:45;18.50;94.40
13892;DHT22;7016;48.172;8.058;2023-06-10T01:16:32;18.40;94.40
13892;DHT22;7016;48.172;8.058;2023-06-10T01:19:18;18.40;94.40
13892;DHT22;7016;48.172;8.058;2023-06-10T01:22:04;18.20;94.80
13892;DHT22;7016;48.172;8.058;2023-06-10T01:24:52;18.20;94.80
13892;DHT22;7016;48.172;8.058;2023-06-10T01:27:40;18.20;95.20
13892;DHT22;7016;48.172;8.058;2023-06-10T01:30:29;18.10;95.00
13892;DHT22;7016;48.172;8.058;2023-06-10T01:33:27;18.00;95.10
13892;DHT22;7016;48.172;8.058;2023-06-10T01:36:16;18.00;95.40
13892;DHT22;7016;48.172;8.058;2023-06-10T01:39:04;18.00;95.20
13892;DHT22;7016;48.172;8.058;2023-06-10T01:41:52;18.00;95.20
13892;DHT22;7016;48.172;8.058;2023-06-10T01:44:39;18.00;95.20
13892;DHT22;7016;48.172;8.058;2023-06-10T01:47:25;17.90;95.50
13892;DHT22;7016;48.172;8.058;2023-06-10T01:50:12;17.90;95.60
13892;DHT22;7016;48.172;8.058;2023-06-10T01:52:59;17.90;95.60
13892;DHT22;7016;48.172;8.058;2023-06-10T01:55:45;17.90;95.50
13892;DHT22;7016;48.172;8.058;2023-06-10T01:58:32;17.80;95.30
13892;DHT22;7016;48.172;8.058;2023-06-10T02:01:18;17.70;95.60
13892;DHT22;7016;48.172;8.058;2023-06-10T02:04:04;17.70;95.60
13892;DHT22;7016;48.172;8.058;2023-06-10T02:06:50;17.70;95.90
13892;DHT22;7016;48.172;8.058;2023-06-10T02:09:36;17.60;95.70
13892;DHT22;7016;48.172;8.058;2023-06-10T02:12:22;17.60;96.00
13892;DHT22;7016;48.172;8.058;2023-06-10T02:15:08;17.50;96.10
13892;DHT22;7016;48.172;8.058;2023-06-10T02:17:55;17.50;96.20
13892;DHT22;7016;48.172;8.058;2023-06-10T02:20:41;17.40;96.30
13892;DHT22;7016;48.172;8.058;2023-06-10T02:23:27;17.40;96.60
13892;DHT22;7016;48.172;8.058;2023-06-10T02:26:14;17.40;96.30
13892;DHT22;7016;48.172;8.058;2023-06-10T02:29:00;17.30;96.20
13892;DHT22;7016;48.172;8.058;2023-06-10T02:31:47;17.30;96.50
13892;DHT22;7016;48.172;8.058;2023-06-10T02:34:33;17.20;96.50
13892;DHT22;7016;48.172;8.058;2023-06-10T02:37:19;17.20;96.50
13892;DHT22;7016;48.172;8.058;2023-06-10T02:40:07;17.20;96.40
13892;DHT22;7016;48.172;8.058;2023-06-10T02:42:53;17.20;96.70
13892;DHT22;7016;48.172;8.058;2023-06-10T02:45:39;17.20;96.70
13892;DHT22;7016;48.172;8.058;2023-06-10T02:48:27;17.20;96.70
13892;DHT22;7016;48.172;8.058;2023-06-10T02:51:13;17.10;96.80
13892;DHT22;7016;48.172;8.058;2023-06-10T02:53:59;17.00;96.90
13892;DHT22;7016;48.172;8.058;2023-06-10T02:56:46;16.90;97.10
13892;DHT22;7016;48.172;8.058;2023-06-10T02:59:33;16.90;97.20
13892;DHT22;7016;48.172;8.058;2023-06-10T03:02:20;16.90;97.30
13892;DHT22;7016;48.172;8.058;2023-06-10T03:05:06;16.80;97.20
13892;DHT22;7016;48.172;8.058;2023-06-10T03:07:55;16.80;97.40
13892;DHT22;7016;48.172;8.058;2023-06-10T03:10:42;16.70;97.40
13892;DHT22;7016;48.172;8.058;2023-06-10T03:13:28;16.70;97.70
13892;DHT22;7016;48.172;8.058;2023-06-10T03:16:14;16.60;97.50
13892;DHT22;7016;48.172;8.058;2023-06-10T03:19:00;16.60;97.70
13892;DHT22;7016;48.172;8.058;2023-06-10T03:21:49;16.50;97.90
13892;DHT22;7016;48.172;8.058;2023-06-10T03:24:36;16.60;98.10
13892;DHT22;7016;48.172;8.058;2023-06-10T03:27:22;16.50;98.00
13892;DHT22;7016;48.172;8.058;2023-06-10T03:30:09;16.60;98.00
13892;DHT22;7016;48.172;8.058;2023-06-10T03:32:55;16.50;98.00
13892;DHT22;7016;48.172;8.058;2023-06-10T03:35:41;16.50;98.10
13892;DHT22;7016;48.172;8.058;2023-06-10T03:38:27;16.40;98.20
13892;DHT22;7016;48.172;8.058;2023-06-10T03:41:13;16.30;98.20
13892;DHT22;7016;48.172;8.058;2023-06-10T03:43:59;16.40;98.40
13892;DHT22;7016;48.172;8.058;2023-06-10T03:46:46;16.50;98.30
13892;DHT22;7016;48.172;8.058;2023-06-10T03:49:33;16.40;98.30
13892;DHT22;7016;48.172;8.058;2023-06-10T03:52:19;16.50;98.50
13892;DHT22;7016;48.172;8.058;2023-06-10T03:55:06;16.40;98.10
13892;DHT22;7016;48.172;8.058;2023-06-10T03:57:52;16.40;98.40
13892;DHT22;7016;48.172;8.058;2023-06-10T04:00:39;16.30;98.70
13892;DHT22;7016;48.172;8.058;2023-06-10T04:03:27;16.30;98.80
13892;DHT22;7016;48.172;8.058;2023-06-10T04:06:14;16.30;98.80
13892;DHT22;7016;48.172;8.058;2023-06-10T04:09:01;16.20;98.90
13892;DHT22;7016;48.172;8.058;2023-06-10T04:11:49;16.20;99.20
13892;DHT22;7016;48.172;8.058;2023-06-10T04:14:35;16.20;99.20
13892;DHT22;7016;48.172;8.058;2023-06-10T04:17:22;16.10;99.20
13892;DHT22;7016;48.172;8.058;2023-06-10T04:20:08;16.00;99.50
13892;DHT22;7016;48.172;8.058;2023-06-10T04:22:55;16.00;99.70
13892;DHT22;7016;48.172;8.058;2023-06-10T04:25:41;16.00;99.70
13892;DHT22;7016;48.172;8.058;2023-06-10T04:28:27;16.00;99.60
13892;DHT22;7016;48.172;8.058;2023-06-10T04:31:14;16.20;99.60
13892;DHT22;7016;48.172;8.058;2023-06-10T04:34:00;16.10;99.90
13892;DHT22;7016;48.172;8.058;2023-06-10T04:36:46;16.10;99.90
13892;DHT22;7016;48.172;8.058;2023-06-10T04:39:33;16.20;99.90
13892;DHT22;7016;48.172;8.058;2023-06-10T04:42:19;16.10;99.90
13892;DHT22;7016;48.172;8.058;2023-06-10T04:45:06;16.20;99.90
13892;DHT22;7016;48.172;8.058;2023-06-10T04:47:52;16.20;99.90
13892;DHT22;7016;48.172;8.058;2023-06-10T04:50:41;16.20;99.90
13892;DHT22;7016;48.172;8.058;2023-06-10T04:53:27;16.20;99.90
13892;DHT22;7016;48.172;8.058;2023-06-10T04:56:14;16.20;99.90
13892;DHT22;7016;48.172;8.058;2023-06-10T04:59:02;16.20;99.90
13892;DHT22;7016;48.172;8.058;2023-06-10T05:01:48;16.20;99.90
13892;DHT22;7016;48.172;8.058;2023-06-10T05:04:34;16.20;99.90
13892;DHT22;7016;48.172;8.058;2023-06-10T05:07:20;16.20;99.90
13892;DHT22;7016;48.172;8.058;2023-06-10T05:10:07;16.40;99.90
13892;DHT22;7016;48.172;8.058;2023-06-10T05:12:53;16.30;99.90
13892;DHT22;7016;48.172;8.058;2023-06-10T05:15:39;16.40;99.90
13892;DHT22;7016;48.172;8.058;2023-06-10T05:18:30;16.50;99.90
13892;DHT22;7016;48.172;8.058;2023-06-10T05:21:17;16.50;99.90
13892;DHT22;7016;48.172;8.058;2023-06-10T05:24:03;16.50;99.90
13892;DHT22;7016;48.172;8.058;2023-06-10T05:26:49;16.60;99.90
13892;DHT22;7016;48.172;8.058;2023-06-10T05:29:36;16.50;99.90
13892;DHT22;7016;48.172;8.058;2023-06-10T05:32:22;16.60;99.90
13892;DHT22;7016;48.172;8.058;2023-06-10T05:35:08;16.70;99.90
13892;DHT22;7016;48.172;8.058;2023-06-10T05:37:54;16.90;99.90
13892;DHT22;7016;48.172;8.058;2023-06-10T05:40:40;17.10;99.90
13892;DHT22;7016;48.172;8.058;2023-06-10T05:43:26;17.40;99.90
13892;DHT22;7016;48.172;8.058;2023-06-10T05:46:13;17.70;99.90
13892;DHT22;7016;48.172;8.058;2023-06-10T05:48:59;18.00;99.80
13892;DHT22;7016;48.172;8.058;2023-06-10T05:51:45;18.20;99.20
13892;DHT22;7016;48.172;8.058;2023-06-10T05:54:31;18.40;99.40
13892;DHT22;7016;48.172;8.058;2023-06-10T05:57:17;18.40;99.10
13892;DHT22;7016;48.172;8.058;2023-06-10T06:00:04;18.60;98.80
13892;DHT22;7016;48.172;8.058;2023-06-10T06:02:50;18.80;99.00
13892;DHT22;7016;48.172;8.058;2023-06-10T06:05:37;18.90;99.00
13892;DHT22;7016;48.172;8.058;2023-06-10T06:08:24;19.00;99.10
13892;DHT22;7016;48.172;8.058;2023-06-10T06:11:10;19.10;99.00
13892;DHT22;7016;48.172;8.058;2023-06-10T06:13:56;19.30;99.00
13892;DHT22;7016;48.172;8.058;2023-06-10T06:16:43;19.50;99.10
13892;DHT22;7016;48.172;8.058;2023-06-10T06:19:29;19.60;98.70
13892;DHT22;7016;48.172;8.058;2023-06-10T06:22:15;19.70;98.20
13892;DHT22;7016;48.172;8.058;2023-06-10T06:25:06;19.80;98.80
13892;DHT22;7016;48.172;8.058;2023-06-10T06:27:52;19.90;98.30
13892;DHT22;7016;48.172;8.058;2023-06-10T06:30:38;20.10;98.00
13892;DHT22;7016;48.172;8.058;2023-06-10T06:33:24;20.10;97.00
13892;DHT22;7016;48.172;8.058;2023-06-10T06:36:12;20.30;97.80
13892;DHT22;7016;48.172;8.058;2023-06-10T06:38:58;20.30;98.00
13892;DHT22;7016;48.172;8.058;2023-06-10T06:41:44;20.50;97.90
13892;DHT22;7016;48.172;8.058;2023-06-10T06:44:30;20.50;98.10
13892;DHT22;7016;48.172;8.058;2023-06-10T06:47:17;20.60;97.60
13892;DHT22;7016;48.172;8.058;2023-06-10T06:50:06;20.70;97.80
13892;DHT22;7016;48.172;8.058;2023-06-10T06:52:52;20.80;97.40
13892;DHT22;7016;48.172;8.058;2023-06-10T06:55:38;20.90;97.20
13892;DHT22;7016;48.172;8.058;2023-06-10T06:58:24;21.10;96.90
13892;DHT22;7016;48.172;8.058;2023-06-10T07:01:10;21.20;97.10
13892;DHT22;7016;48.172;8.058;2023-06-10T07:03:56;21.30;96.60
13892;DHT22;7016;48.172;8.058;2023-06-10T07:06:43;21.40;96.40
13892;DHT22;7016;48.172;8.058;2023-06-10T07:09:29;21.50;95.80
13892;DHT22;7016;48.172;8.058;2023-06-10T07:12:15;21.60;96.40
13892;DHT22;7016;48.172;8.058;2023-06-10T07:15:01;21.60;96.80
13892;DHT22;7016;48.172;8.058;2023-06-10T07:17:48;21.70;96.50
13892;DHT22;7016;48.172;8.058;2023-06-10T07:20:34;21.80;96.20
13892;DHT22;7016;48.172;8.058;2023-06-10T07:23:20;21.90;96.00
13892;DHT22;7016;48.172;8.058;2023-06-10T07:26:06;22.00;96.60
13892;DHT22;7016;48.172;8.058;2023-06-10T07:28:53;22.10;94.80
13892;DHT22;7016;48.172;8.058;2023-06-10T07:31:41;22.10;95.30
13892;DHT22;7016;48.172;8.058;2023-06-10T07:34:27;22.20;96.20
13892;DHT22;7016;48.172;8.058;2023-06-10T07:37:13;22.30;95.50
13892;DHT22;7016;48.172;8.058;2023-06-10T07:39:59;22.40;93.40
13892;DHT22;7016;48.172;8.058;2023-06-10T07:42:46;22.60;94.50
13892;DHT22;7016;48.172;8.058;2023-06-10T07:45:32;22.70;93.50
13892;DHT22;7016;48.172;8.058;2023-06-10T07:48:18;22.70;93.60
13892;DHT22;7016;48.172;8.058;2023-06-10T07:51:04;22.90;93.40
13892;DHT22;7016;48.172;8.058;2023-06-10T07:53:51;23.00;93.10
13892;DHT22;7016;48.172;8.058;2023-06-10T07:56:37;23.10;92.40
13892;DHT22;7016;48.172;8.058;2023-06-10T07:59:23;23.10;92.60
13892;DHT22;7016;48.172;8.058;2023-06-10T08:02:12;23.20;92.20
13892;DHT22;7016;48.172;8.058;2023-06-10T08:04:58;23.30;92.30
13892;DHT22;7016;48.172;8.058;2023-06-10T08:07:45;23.40;92.30
13892;DHT22;7016;48.172;8.058;2023-06-10T08:10:31;23.60;92.40
13892;DHT22;7016;48.172;8.058;2023-06-10T08:13:17;23.60;91.40
13892;DHT22;7016;48.172;8.058;2023-06-10T08:16:04;23.70;92.00
13892;DHT22;7016;48.172;8.058;2023-06-10T08:18:50;23.80;91.60
13892;DHT22;7016;48.172;8.058;2023-06-10T08:21:36;23.90;92.20
13892;DHT22;7016;48.172;8.058;2023-06-10T08:24:23;24.00;92.10
13892;DHT22;7016;48.172;8.058;2023-06-10T08:27:09;24.10;91.60
13892;DHT22;7016;48.172;8.058;2023-06-10T08:29:56;24.10;90.60
13892;DHT22;7016;48.172;8.058;2023-06-10T08:32:42;24.10;91.00
13892;DHT22;7016;48.172;8.058;2023-06-10T08:35:28;24.20;90.60
13892;DHT22;7016;48.172;8.058;2023-06-10T08:38:15;24.30;90.00
13892;DHT22;7016;48.172;8.058;2023-06-10T08:41:05;24.20;90.30
13892;DHT22;7016;48.172;8.058;2023-06-10T08:44:01;24.30;90.70
13892;DHT22;7016;48.172;8.058;2023-06-10T08:46:50;24.30;90.20
13892;DHT22;7016;48.172;8.058;2023-06-10T08:49:43;24.50;89.80
13892;DHT22;7016;48.172;8.058;2023-06-10T08:52:35;24.50;90.70
13892;DHT22;7016;48.172;8.058;2023-06-10T08:58:13;24.70;88.60
13892;DHT22;7016;48.172;8.058;2023-06-10T09:00:59;24.80;89.40
13892;DHT22;7016;48.172;8.058;2023-06-10T09:03:47;24.80;89.80
13892;DHT22;7016;48.172;8.058;2023-06-10T09:06:34;24.90;89.20
13892;DHT22;7016;48.172;8.058;2023-06-10T09:09:22;24.90;86.50
13892;DHT22;7016;48.172;8.058;2023-06-10T09:12:09;25.00;88.50
13892;DHT22;7016;48.172;8.058;2023-06-10T09:14:56;25.00;86.50
13892;DHT22;7016;48.172;8.058;2023-06-10T09:17:42;25.10;88.50
13892;DHT22;7016;48.172;8.058;2023-06-10T09:20:29;25.10;87.80
13892;DHT22;7016;48.172;8.058;2023-06-10T09:23:15;25.20;88.10
13892;DHT22;7016;48.172;8.058;2023-06-10T09:26:02;25.30;86.70
13892;DHT22;7016;48.172;8.058;2023-06-10T09:28:51;25.30;86.30
13892;DHT22;7016;48.172;8.058;2023-06-10T09:31:39;25.40;88.10
13892;DHT22;7016;48.172;8.058;2023-06-10T09:34:25;25.20;85.70
13892;DHT22;7016;48.172;8.058;2023-06-10T09:37:13;25.40;85.20
13892;DHT22;7016;48.172;8.058;2023-06-10T09:40:06;25.50;84.90
13892;DHT22;7016;48.172;8.058;2023-06-10T09:42:58;25.60;82.90
13892;DHT22;7016;48.172;8.058;2023-06-10T09:45:48;25.40;83.00
13892;DHT22;7016;48.172;8.058;2023-06-10T09:48:37;25.50;83.60
13892;DHT22;7016;48.172;8.058;2023-06-10T09:51:26;25.60;84.80
13892;DHT22;7016;48.172;8.058;2023-06-10T09:54:12;25.70;83.70
13892;DHT22;7016;48.172;8.058;2023-06-10T09:56:59;25.80;80.70
13892;DHT22;7016;48.172;8.058;2023-06-10T09:59:46;25.70;79.90
13892;DHT22;7016;48.172;8.058;2023-06-10T10:02:32;25.50;81.90
13892;DHT22;7016;48.172;8.058;2023-06-10T10:05:20;25.40;83.60
13892;DHT22;7016;48.172;8.058;2023-06-10T10:08:07;25.40;80.90
13892;DHT22;7016;48.172;8.058;2023-06-10T10:10:53;26.80;82.70
13892;DHT22;7016;48.172;8.058;2023-06-10T10:13:39;25.50;82.00
13892;DHT22;7016;48.172;8.058;2023-06-10T10:16:30;25.60;82.50
13892;DHT22;7016;48.172;8.058;2023-06-10T10:19:28;25.50;81.20
13892;DHT22;7016;48.172;8.058;2023-06-10T10:22:26;25.60;83.20
13892;DHT22;7016;48.172;8.058;2023-06-10T10:25:17;25.70;81.60
13892;DHT22;7016;48.172;8.058;2023-06-10T10:28:11;25.60;81.10
13892;DHT22;7016;48.172;8.058;2023-06-10T10:31:05;25.60;81.80
13892;DHT22;7016;48.172;8.058;2023-06-10T10:34:01;25.50;82.50
13892;DHT22;7016;48.172;8.058;2023-06-10T10:36:49;25.50;81.70
13892;DHT22;7016;48.172;8.058;2023-06-10T10:39:36;25.70;82.00
13892;DHT22;7016;48.172;8.058;2023-06-10T10:42:23;25.90;81.40
13892;DHT22;7016;48.172;8.058;2023-06-10T10:45:10;25.90;80.70
13892;DHT22;7016;48.172;8.058;2023-06-10T10:47:56;26.00;80.70
13892;DHT22;7016;48.172;8.058;2023-06-10T10:50:43;26.00;80.50
13892;DHT22;7016;48.172;8.058;2023-06-10T10:53:29;26.10;80.10
13892;DHT22;7016;48.172;8.058;2023-06-10T10:56:16;26.10;79.80
13892;DHT22;7016;48.172;8.058;2023-06-10T10:59:06;26.20;79.20
13892;DHT22;7016;48.172;8.058;2023-06-10T11:01:53;26.30;79.30
13892;DHT22;7016;48.172;8.058;2023-06-10T11:04:44;26.30;80.10
13892;DHT22;7016;48.172;8.058;2023-06-10T11:07:32;26.30;78.40
13892;DHT22;7016;48.172;8.058;2023-06-10T11:10:29;26.40;77.50
13892;DHT22;7016;48.172;8.058;2023-06-10T11:13:17;26.50;78.90
13892;DHT22;7016;48.172;8.058;2023-06-10T11:16:05;26.60;79.80
13892;DHT22;7016;48.172;8.058;2023-06-10T11:18:55;26.70;80.20
13892;DHT22;7016;48.172;8.058;2023-06-10T11:22:01;26.80;79.20
13892;DHT22;7016;48.172;8.058;2023-06-10T11:24:50;26.60;77.90
13892;DHT22;7016;48.172;8.058;2023-06-10T11:27:37;26.50;78.00
13892;DHT22;7016;48.172;8.058;2023-06-10T11:30:25;26.50;78.80
13892;DHT22;7016;48.172;8.058;2023-06-10T11:33:17;26.50;77.90
13892;DHT22;7016;48.172;8.058;2023-06-10T11:36:07;26.70;77.20
13892;DHT22;7016;48.172;8.058;2023-06-10T11:38:56;26.70;77.80
13892;DHT22;7016;48.172;8.058;2023-06-10T11:41:43;26.60;78.70
13892;DHT22;7016;48.172;8.058;2023-06-10T11:44:29;26.60;76.90
13892;DHT22;7016;48.172;8.058;2023-06-10T11:47:16;26.50;76.80
13892;DHT22;7016;48.172;8.058;2023-06-10T11:50:02;26.60;75.50
13892;DHT22;7016;48.172;8.058;2023-06-10T11:52:48;26.60;76.40
13892;DHT22;7016;48.172;8.058;2023-06-10T11:55:44;26.80;78.40
13892;DHT22;7016;48.172;8.058;2023-06-10T11:58:31;27.00;75.10
13892;DHT22;7016;48.172;8.058;2023-06-10T12:01:23;27.00;75.80
13892;DHT22;7016;48.172;8.058;2023-06-10T12:04:14;27.10;77.10
13892;DHT22;7016;48.172;8.058;2023-06-10T12:07:01;27.10;75.10
13892;DHT22;7016;48.172;8.058;2023-06-10T12:09:58;27.30;77.70
13892;DHT22;7016;48.172;8.058;2023-06-10T12:12:45;27.50;77.40
13892;DHT22;7016;48.172;8.058;2023-06-10T12:15:32;27.30;77.30
13892;DHT22;7016;48.172;8.058;2023-06-10T12:18:19;26.90;75.20
13892;DHT22;7016;48.172;8.058;2023-06-10T12:21:24;26.80;75.80
13892;DHT22;7016;48.172;8.058;2023-06-10T12:24:10;26.90;77.20
13892;DHT22;7016;48.172;8.058;2023-06-10T12:26:57;27.00;78.30
13892;DHT22;7016;48.172;8.058;2023-06-10T12:29:51;27.10;78.50
13892;DHT22;7016;48.172;8.058;2023-06-10T12:32:41;27.20;78.60
13892;DHT22;7016;48.172;8.058;2023-06-10T12:35:28;27.20;77.80
13892;DHT22;7016;48.172;8.058;2023-06-10T12:38:14;27.10;77.50
13892;DHT22;7016;48.172;8.058;2023-06-10T12:41:07;27.00;77.60
13892;DHT22;7016;48.172;8.058;2023-06-10T12:43:54;27.00;77.90
13892;DHT22;7016;48.172;8.058;2023-06-10T12:46:40;27.10;78.20
13892;DHT22;7016;48.172;8.058;2023-06-10T12:49:26;27.00;76.90
13892;DHT22;7016;48.172;8.058;2023-06-10T12:52:12;27.00;78.80
13892;DHT22;7016;48.172;8.058;2023-06-10T12:54:59;27.00;77.90
13892;DHT22;7016;48.172;8.058;2023-06-10T12:57:50;26.80;80.20
13892;DHT22;7016;48.172;8.058;2023-06-10T13:00:36;26.90;79.20
13892;DHT22;7016;48.172;8.058;2023-06-10T13:03:22;26.90;82.00
13892;DHT22;7016;48.172;8.058;2023-06-10T13:06:08;26.90;80.80
13892;DHT22;7016;48.172;8.058;2023-06-10T13:08:55;27.00;79.40
13892;DHT22;7016;48.172;8.058;2023-06-10T13:11:41;27.20;78.80
13892;DHT22;7016;48.172;8.058;2023-06-10T13:14:28;27.20;79.70
13892;DHT22;7016;48.172;8.058;2023-06-10T13:17:14;27.20;76.60
13892;DHT22;7016;48.172;8.058;2023-06-10T13:20:02;27.20;75.90
13892;DHT22;7016;48.172;8.058;2023-06-10T13:22:49;27.30;77.00
13892;DHT22;7016;48.172;8.058;2023-06-10T13:25:35;27.20;75.50
13892;DHT22;7016;48.172;8.058;2023-06-10T13:28:21;27.00;75.80
13892;DHT22;7016;48.172;8.058;2023-06-10T13:31:07;26.90;76.70
13892;DHT22;7016;48.172;8.058;2023-06-10T13:33:53;26.90;76.90
13892;DHT22;7016;48.172;8.058;2023-06-10T13:36:39;26.90;77.70
13892;DHT22;7016;48.172;8.058;2023-06-10T13:39:26;26.80;76.70
13892;DHT22;7016;48.172;8.058;2023-06-10T13:42:12;26.80;77.70
13892;DHT22;7016;48.172;8.058;2023-06-10T13:44:59;26.90;77.60
13892;DHT22;7016;48.172;8.058;2023-06-10T13:47:45;27.10;79.20
13892;DHT22;7016;48.172;8.058;2023-06-10T13:50:31;27.10;77.10
13892;DHT22;7016;48.172;8.058;2023-06-10T13:53:17;27.10;77.80
13892;DHT22;7016;48.172;8.058;2023-06-10T13:56:04;27.20;75.60
13892;DHT22;7016;48.172;8.058;2023-06-10T13:58:50;27.20;74.30
13892;DHT22;7016;48.172;8.058;2023-06-10T14:01:36;27.30;75.40
13892;DHT22;7016;48.172;8.058;2023-06-10T14:04:23;27.50;75.30
13892;DHT22;7016;48.172;8.058;2023-06-10T14:07:09;27.40;73.60
13892;DHT22;7016;48.172;8.058;2023-06-10T14:09:55;27.50;73.80
13892;DHT22;7016;48.172;8.058;2023-06-10T14:12:42;27.60;74.80
13892;DHT22;7016;48.172;8.058;2023-06-10T14:15:28;27.70;74.80
13892;DHT22;7016;48.172;8.058;2023-06-10T14:18:14;27.50;75.50
13892;DHT22;7016;48.172;8.058;2023-06-10T14:21:00;27.50;76.90
13892;DHT22;7016;48.172;8.058;2023-06-10T14:23:46;27.60;76.50
13892;DHT22;7016;48.172;8.058;2023-06-10T14:26:34;27.30;74.70
13892;DHT22;7016;48.172;8.058;2023-06-10T14:29:20;27.20;74.60
13892;DHT22;7016;48.172;8.058;2023-06-10T14:32:07;27.10;74.70
13892;DHT22;7016;48.172;8.058;2023-06-10T14:34:54;27.10;75.10
13892;DHT22;7016;48.172;8.058;2023-06-10T14:37:40;27.10;74.60
13892;DHT22;7016;48.172;8.058;2023-06-10T14:40:27;27.20;75.10
13892;DHT22;7016;48.172;8.058;2023-06-10T14:43:15;27.20;76.50
13892;DHT22;7016;48.172;8.058;2023-06-10T14:46:01;27.40;77.10
13892;DHT22;7016;48.172;8.058;2023-06-10T14:48:47;27.60;76.20
13892;DHT22;7016;48.172;8.058;2023-06-10T14:51:33;27.70;77.80
13892;DHT22;7016;48.172;8.058;2023-06-10T14:54:20;27.90;76.30
13892;DHT22;7016;48.172;8.058;2023-06-10T14:57:06;27.90;73.60
13892;DHT22;7016;48.172;8.058;2023-06-10T14:59:53;27.90;73.30
13892;DHT22;7016;48.172;8.058;2023-06-10T15:02:39;27.70;72.20
13892;DHT22;7016;48.172;8.058;2023-06-10T15:05:25;27.60;72.50
13892;DHT22;7016;48.172;8.058;2023-06-10T15:08:11;27.40;71.30
13892;DHT22;7016;48.172;8.058;2023-06-10T15:10:58;27.40;72.90
13892;DHT22;7016;48.172;8.058;2023-06-10T15:13:44;27.60;74.30
13892;DHT22;7016;48.172;8.058;2023-06-10T15:16:30;27.60;72.30
13892;DHT22;7016;48.172;8.058;2023-06-10T15:19:17;27.70;74.40
13892;DHT22;7016;48.172;8.058;2023-06-10T15:22:03;27.80;72.40
13892;DHT22;7016;48.172;8.058;2023-06-10T15:24:49;27.70;74.00
13892;DHT22;7016;48.172;8.058;2023-06-10T15:27:35;27.70;71.30
13892;DHT22;7016;48.172;8.058;2023-06-10T15:30:22;27.70;71.70
13892;DHT22;7016;48.172;8.058;2023-06-10T15:33:08;27.80;71.30
13892;DHT22;7016;48.172;8.058;2023-06-10T15:35:54;27.80;71.80
13892;DHT22;7016;48.172;8.058;2023-06-10T15:38:40;27.80;72.00
13892;DHT22;7016;48.172;8.058;2023-06-10T15:41:26;27.80;73.20
13892;DHT22;7016;48.172;8.058;2023-06-10T15:44:13;27.60;72.30
13892;DHT22;7016;48.172;8.058;2023-06-10T15:46:59;27.50;73.10
13892;DHT22;7016;48.172;8.058;2023-06-10T15:49:45;27.60;72.70
13892;DHT22;7016;48.172;8.058;2023-06-10T15:52:31;27.50;73.10
13892;DHT22;7016;48.172;8.058;2023-06-10T15:55:17;27.60;72.90
13892;DHT22;7016;48.172;8.058;2023-06-10T15:58:03;27.50;71.00
13892;DHT22;7016;48.172;8.058;2023-06-10T16:00:50;27.50;71.60
13892;DHT22;7016;48.172;8.058;2023-06-10T16:03:36;27.40;72.50
13892;DHT22;7016;48.172;8.058;2023-06-10T16:06:22;27.50;73.00
13892;DHT22;7016;48.172;8.058;2023-06-10T16:09:08;27.50;72.80
13892;DHT22;7016;48.172;8.058;2023-06-10T16:11:54;27.60;73.40
13892;DHT22;7016;48.172;8.058;2023-06-10T16:14:41;27.70;72.60
13892;DHT22;7016;48.172;8.058;2023-06-10T16:17:27;27.70;73.20
13892;DHT22;7016;48.172;8.058;2023-06-10T16:20:13;27.70;71.70
13892;DHT22;7016;48.172;8.058;2023-06-10T16:22:59;27.60;70.10
13892;DHT22;7016;48.172;8.058;2023-06-10T16:25:46;27.50;70.20
13892;DHT22;7016;48.172;8.058;2023-06-10T16:28:32;27.40;68.50
13892;DHT22;7016;48.172;8.058;2023-06-10T16:31:18;27.40;69.40
13892;DHT22;7016;48.172;8.058;2023-06-10T16:34:05;27.50;71.40
13892;DHT22;7016;48.172;8.058;2023-06-10T16:36:51;27.60;68.70
13892;DHT22;7016;48.172;8.058;2023-06-10T16:39:37;27.50;68.60
13892;DHT22;7016;48.172;8.058;2023-06-10T16:42:23;27.50;69.10
13892;DHT22;7016;48.172;8.058;2023-06-10T16:45:10;27.40;68.40
13892;DHT22;7016;48.172;8.058;2023-06-10T16:47:56;27.30;68.60
13892;DHT22;7016;48.172;8.058;2023-06-10T16:50:42;27.30;67.90
13892;DHT22;7016;48.172;8.058;2023-06-10T16:53:29;27.30;68.90
13892;DHT22;7016;48.172;8.058;2023-06-10T16:56:15;27.40;67.90
13892;DHT22;7016;48.172;8.058;2023-06-10T16:59:02;27.50;69.00
13892;DHT22;7016;48.172;8.058;2023-06-10T17:01:48;27.50;70.10
13892;DHT22;7016;48.172;8.058;2023-06-10T17:04:35;27.40;68.30
13892;DHT22;7016;48.172;8.058;2023-06-10T17:07:23;27.40;69.70
13892;DHT22;7016;48.172;8.058;2023-06-10T17:10:09;27.40;70.70
13892;DHT22;7016;48.172;8.058;2023-06-10T17:12:56;27.40;70.90
13892;DHT22;7016;48.172;8.058;2023-06-10T17:15:42;27.40;71.30
13892;DHT22;7016;48.172;8.058;2023-06-10T17:18:28;27.30;69.20
13892;DHT22;7016;48.172;8.058;2023-06-10T17:21:14;27.20;69.20
13892;DHT22;7016;48.172;8.058;2023-06-10T17:24:00;27.20;68.50
13892;DHT22;7016;48.172;8.058;2023-06-10T17:26:47;27.20;68.60
13892;DHT22;7016;48.172;8.058;2023-06-10T17:29:33;27.20;68.80
13892;DHT22;7016;48.172;8.058;2023-06-10T17:32:19;27.20;69.80
13892;DHT22;7016;48.172;8.058;2023-06-10T17:35:07;27.20;71.00
13892;DHT22;7016;48.172;8.058;2023-06-10T17:37:53;27.20;71.50
13892;DHT22;7016;48.172;8.058;2023-06-10T17:40:39;27.20;70.90
13892;DHT22;7016;48.172;8.058;2023-06-10T17:43:25;27.10;71.40
13892;DHT22;7016;48.172;8.058;2023-06-10T17:46:12;27.20;73.20
13892;DHT22;7016;48.172;8.058;2023-06-10T17:48:58;27.10;71.20
13892;DHT22;7016;48.172;8.058;2023-06-10T17:51:44;27.10;71.80
13892;DHT22;7016;48.172;8.058;2023-06-10T17:54:30;27.00;72.00